sensor_id;sensor_type;location;lat;lon;timestamp;P1;durP1;ratioP1;P2;durP2;ratioP2
15669;SDS011;18524;45.190;5.732;2023-01-16T00:01:13;22.20;;;18.43;;
15669;SDS011;18524;45.190;5.732;2023-01-16T00:06:04;25.70;;;18.87;;
15669;SDS011;18524;45.190;5.732;2023-01-16T00:10:55;21.97;;;17.77;;
15669;SDS011;18524;45.190;5.732;2023-01-16T00:15:46;20.90;;;17.07;;
15669;SDS011;18524;45.190;5.732;2023-01-16T00:20:38;20.37;;;16.40;;
15669;SDS011;18524;45.190;5.732;2023-01-16T00:25:28;20.40;;;16.50;;
15669;SDS011;18524;45.190;5.732;2023-01-16T00:30:19;26.40;;;20.27;;
15669;SDS011;18524;45.190;5.732;2023-01-16T00:35:09;32.00;;;21.97;;
15669;SDS011;18524;45.190;5.732;2023-01-16T00:39:59;36.27;;;24.00;;
15669;SDS011;18524;45.190;5.732;2023-01-16T00:44:50;25.33;;;20.10;;
15669;SDS011;18524;45.190;5.732;2023-01-16T00:49:40;24.13;;;19.30;;
15669;SDS011;18524;45.190;5.732;2023-01-16T00:54:31;24.20;;;18.67;;
15669;SDS011;18524;45.190;5.732;2023-01-16T00:59:21;26.77;;;19.70;;
15669;SDS011;18524;45.190;5.732;2023-01-16T01:04:11;25.20;;;18.67;;
15669;SDS011;18524;45.190;5.732;2023-01-16T01:09:02;25.73;;;19.30;;
15669;SDS011;18524;45.190;5.732;2023-01-16T01:13:53;29.60;;;21.07;;
15669;SDS011;18524;45.190;5.732;2023-01-16T01:18:43;30.43;;;20.93;;
15669;SDS011;18524;45.190;5.732;2023-01-16T01:23:34;36.87;;;23.30;;
15669;SDS011;18524;45.190;5.732;2023-01-16T01:28:24;41.17;;;24.17;;
15669;SDS011;18524;45.190;5.732;2023-01-16T01:33:15;45.63;;;23.93;;
15669;SDS011;18524;45.190;5.732;2023-01-16T01:38:05;35.33;;;22.97;;
15669;SDS011;18524;45.190;5.732;2023-01-16T01:42:56;36.80;;;23.17;;
15669;SDS011;18524;45.190;5.732;2023-01-16T01:47:47;31.97;;;20.50;;
15669;SDS011;18524;45.190;5.732;2023-01-16T01:52:44;33.07;;;21.67;;
15669;SDS011;18524;45.190;5.732;2023-01-16T01:57:39;39.43;;;22.23;;
15669;SDS011;18524;45.190;5.732;2023-01-16T02:02:33;35.13;;;22.00;;
15669;SDS011;18524;45.190;5.732;2023-01-16T02:07:27;103.87;;;21.90;;
15669;SDS011;18524;45.190;5.732;2023-01-16T02:12:18;51.87;;;20.57;;
15669;SDS011;18524;45.190;5.732;2023-01-16T02:17:12;94.47;;;23.00;;
15669;SDS011;18524;45.190;5.732;2023-01-16T02:22:30;49.60;;;18.70;;
15669;SDS011;18524;45.190;5.732;2023-01-16T02:27:49;55.63;;;17.80;;
15669;SDS011;18524;45.190;5.732;2023-01-16T02:33:01;31.30;;;16.53;;
15669;SDS011;18524;45.190;5.732;2023-01-16T02:38:01;28.77;;;16.77;;
15669;SDS011;18524;45.190;5.732;2023-01-16T02:58:40;42.87;;;21.60;;
15669;SDS011;18524;45.190;5.732;2023-01-16T03:08:35;47.20;;;19.70;;
15669;SDS011;18524;45.190;5.732;2023-01-16T03:28:53;41.13;;;20.63;;
15669;SDS011;18524;45.190;5.732;2023-01-16T03:34:03;45.43;;;19.33;;
15669;SDS011;18524;45.190;5.732;2023-01-16T03:39:04;41.83;;;18.13;;
15669;SDS011;18524;45.190;5.732;2023-01-16T03:44:05;43.87;;;16.83;;
15669;SDS011;18524;45.190;5.732;2023-01-16T03:49:02;51.83;;;17.67;;
15669;SDS011;18524;45.190;5.732;2023-01-16T03:54:01;30.73;;;16.60;;
15669;SDS011;18524;45.190;5.732;2023-01-16T03:59:12;27.43;;;16.60;;
15669;SDS011;18524;45.190;5.732;2023-01-16T04:09:06;29.47;;;15.47;;
15669;SDS011;18524;45.190;5.732;2023-01-16T04:14:03;30.53;;;13.63;;
15669;SDS011;18524;45.190;5.732;2023-01-16T04:18:56;38.73;;;14.23;;
15669;SDS011;18524;45.190;5.732;2023-01-16T04:23:47;27.57;;;14.53;;
15669;SDS011;18524;45.190;5.732;2023-01-16T04:28:37;37.27;;;17.07;;
15669;SDS011;18524;45.190;5.732;2023-01-16T04:33:28;59.17;;;20.03;;
15669;SDS011;18524;45.190;5.732;2023-01-16T04:38:18;42.77;;;17.90;;
15669;SDS011;18524;45.190;5.732;2023-01-16T04:43:08;34.77;;;15.80;;
15669;SDS011;18524;45.190;5.732;2023-01-16T04:47:59;37.77;;;14.90;;
15669;SDS011;18524;45.190;5.732;2023-01-16T04:52:49;36.33;;;14.30;;
15669;SDS011;18524;45.190;5.732;2023-01-16T04:57:40;25.23;;;14.87;;
15669;SDS011;18524;45.190;5.732;2023-01-16T05:02:30;30.53;;;17.90;;
15669;SDS011;18524;45.190;5.732;2023-01-16T05:07:21;27.87;;;17.30;;
15669;SDS011;18524;45.190;5.732;2023-01-16T05:12:11;24.10;;;14.20;;
15669;SDS011;18524;45.190;5.732;2023-01-16T05:17:02;21.67;;;13.10;;
15669;SDS011;18524;45.190;5.732;2023-01-16T05:21:52;20.70;;;12.83;;
15669;SDS011;18524;45.190;5.732;2023-01-16T05:26:42;18.27;;;11.83;;
15669;SDS011;18524;45.190;5.732;2023-01-16T05:31:33;28.07;;;18.00;;
15669;SDS011;18524;45.190;5.732;2023-01-16T05:36:23;16.00;;;11.07;;
15669;SDS011;18524;45.190;5.732;2023-01-16T05:41:14;14.03;;;10.00;;
15669;SDS011;18524;45.190;5.732;2023-01-16T05:46:04;13.80;;;9.50;;
15669;SDS011;18524;45.190;5.732;2023-01-16T05:50:54;13.30;;;8.80;;
15669;SDS011;18524;45.190;5.732;2023-01-16T05:55:45;13.80;;;10.03;;
15669;SDS011;18524;45.190;5.732;2023-01-16T06:00:37;13.93;;;9.43;;
15669;SDS011;18524;45.190;5.732;2023-01-16T06:05:28;13.93;;;9.90;;
15669;SDS011;18524;45.190;5.732;2023-01-16T06:10:19;15.60;;;11.23;;
15669;SDS011;18524;45.190;5.732;2023-01-16T06:15:10;13.97;;;9.70;;
15669;SDS011;18524;45.190;5.732;2023-01-16T06:20:00;14.47;;;9.53;;
15669;SDS011;18524;45.190;5.732;2023-01-16T06:24:51;14.97;;;9.50;;
15669;SDS011;18524;45.190;5.732;2023-01-16T06:29:41;14.73;;;9.00;;
15669;SDS011;18524;45.190;5.732;2023-01-16T06:34:31;10.63;;;6.60;;
15669;SDS011;18524;45.190;5.732;2023-01-16T06:39:22;10.67;;;7.27;;
15669;SDS011;18524;45.190;5.732;2023-01-16T06:44:12;12.40;;;8.70;;
15669;SDS011;18524;45.190;5.732;2023-01-16T06:49:03;10.80;;;7.23;;
15669;SDS011;18524;45.190;5.732;2023-01-16T06:53:53;11.70;;;8.50;;
15669;SDS011;18524;45.190;5.732;2023-01-16T06:58:43;15.90;;;10.93;;
15669;SDS011;18524;45.190;5.732;2023-01-16T07:03:34;14.17;;;9.20;;
15669;SDS011;18524;45.190;5.732;2023-01-16T07:08:25;13.03;;;9.73;;
15669;SDS011;18524;45.190;5.732;2023-01-16T07:13:15;12.43;;;9.07;;
15669;SDS011;18524;45.190;5.732;2023-01-16T07:18:09;11.90;;;8.67;;
15669;SDS011;18524;45.190;5.732;2023-01-16T07:23:22;11.23;;;8.13;;
15669;SDS011;18524;45.190;5.732;2023-01-16T07:28:18;12.50;;;8.53;;
15669;SDS011;18524;45.190;5.732;2023-01-16T07:33:08;12.57;;;9.73;;
15669;SDS011;18524;45.190;5.732;2023-01-16T07:37:59;12.90;;;9.80;;
15669;SDS011;18524;45.190;5.732;2023-01-16T07:42:50;12.43;;;10.20;;
15669;SDS011;18524;45.190;5.732;2023-01-16T07:47:41;13.27;;;9.00;;
15669;SDS011;18524;45.190;5.732;2023-01-16T07:52:31;11.20;;;8.43;;
15669;SDS011;18524;45.190;5.732;2023-01-16T07:57:21;9.63;;;6.97;;
15669;SDS011;18524;45.190;5.732;2023-01-16T08:02:12;3.67;;;2.80;;
15669;SDS011;18524;45.190;5.732;2023-01-16T08:07:02;2.20;;;1.70;;
15669;SDS011;18524;45.190;5.732;2023-01-16T08:11:53;1.23;;;0.40;;
15669;SDS011;18524;45.190;5.732;2023-01-16T08:16:43;0.57;;;0.20;;
15669;SDS011;18524;45.190;5.732;2023-01-16T08:21:33;0.30;;;0.20;;
15669;SDS011;18524;45.190;5.732;2023-01-16T08:26:24;0.57;;;0.20;;
15669;SDS011;18524;45.190;5.732;2023-01-16T08:31:14;0.50;;;0.13;;
15669;SDS011;18524;45.190;5.732;2023-01-16T08:36:06;0.27;;;0.20;;
15669;SDS011;18524;45.190;5.732;2023-01-16T08:40:58;0.87;;;0.30;;
15669;SDS011;18524;45.190;5.732;2023-01-16T08:45:48;0.30;;;0.10;;
15669;SDS011;18524;45.190;5.732;2023-01-16T08:50:57;1.90;;;0.50;;
15669;SDS011;18524;45.190;5.732;2023-01-16T08:56:06;0.40;;;0.20;;
15669;SDS011;18524;45.190;5.732;2023-01-16T09:00:57;1.13;;;0.30;;
15669;SDS011;18524;45.190;5.732;2023-01-16T09:05:48;0.50;;;0.20;;
15669;SDS011;18524;45.190;5.732;2023-01-16T09:10:39;0.67;;;0.30;;
15669;SDS011;18524;45.190;5.732;2023-01-16T09:15:50;0.33;;;0.20;;
15669;SDS011;18524;45.190;5.732;2023-01-16T09:20:40;0.63;;;0.30;;
15669;SDS011;18524;45.190;5.732;2023-01-16T09:25:32;1.03;;;0.40;;
15669;SDS011;18524;45.190;5.732;2023-01-16T09:30:23;0.43;;;0.20;;
15669;SDS011;18524;45.190;5.732;2023-01-16T09:35:14;0.40;;;0.30;;
15669;SDS011;18524;45.190;5.732;2023-01-16T09:40:05;0.63;;;0.20;;
15669;SDS011;18524;45.190;5.732;2023-01-16T09:45:06;0.50;;;0.20;;
15669;SDS011;18524;45.190;5.732;2023-01-16T09:55:27;0.60;;;0.40;;
15669;SDS011;18524;45.190;5.732;2023-01-16T10:00:44;1.00;;;0.37;;
15669;SDS011;18524;45.190;5.732;2023-01-16T10:05:45;0.50;;;0.30;;
15669;SDS011;18524;45.190;5.732;2023-01-16T10:11:03;0.70;;;0.40;;
15669;SDS011;18524;45.190;5.732;2023-01-16T10:26:15;1.60;;;0.20;;
15669;SDS011;18524;45.190;5.732;2023-01-16T10:31:16;1.63;;;0.30;;
15669;SDS011;18524;45.190;5.732;2023-01-16T10:36:17;0.60;;;0.40;;
15669;SDS011;18524;45.190;5.732;2023-01-16T10:41:18;1.00;;;0.30;;
15669;SDS011;18524;45.190;5.732;2023-01-16T10:46:48;1.20;;;0.50;;
15669;SDS011;18524;45.190;5.732;2023-01-16T10:52:00;1.10;;;0.20;;
15669;SDS011;18524;45.190;5.732;2023-01-16T10:56:54;0.80;;;0.20;;
15669;SDS011;18524;45.190;5.732;2023-01-16T11:01:48;0.93;;;0.30;;
15669;SDS011;18524;45.190;5.732;2023-01-16T11:06:40;1.10;;;0.20;;
15669;SDS011;18524;45.190;5.732;2023-01-16T11:11:34;0.70;;;0.20;;
15669;SDS011;18524;45.190;5.732;2023-01-16T11:16:44;0.50;;;0.30;;
15669;SDS011;18524;45.190;5.732;2023-01-16T11:21:54;0.60;;;0.40;;
15669;SDS011;18524;45.190;5.732;2023-01-16T11:26:59;0.77;;;0.30;;
15669;SDS011;18524;45.190;5.732;2023-01-16T11:31:53;2.17;;;0.80;;
15669;SDS011;18524;45.190;5.732;2023-01-16T11:36:46;0.67;;;0.50;;
15669;SDS011;18524;45.190;5.732;2023-01-16T11:41:37;1.67;;;0.40;;
15669;SDS011;18524;45.190;5.732;2023-01-16T11:51:20;1.40;;;0.50;;
15669;SDS011;18524;45.190;5.732;2023-01-16T11:56:22;0.73;;;0.47;;
15669;SDS011;18524;45.190;5.732;2023-01-16T12:01:39;1.10;;;0.90;;
15669;SDS011;18524;45.190;5.732;2023-01-16T12:07:11;2.00;;;1.00;;
15669;SDS011;18524;45.190;5.732;2023-01-16T12:38:07;1.80;;;0.30;;
15669;SDS011;18524;45.190;5.732;2023-01-16T12:43:45;0.77;;;0.37;;
15669;SDS011;18524;45.190;5.732;2023-01-16T12:48:34;1.20;;;0.50;;
15669;SDS011;18524;45.190;5.732;2023-01-16T12:58:45;1.30;;;0.20;;
15669;SDS011;18524;45.190;5.732;2023-01-16T13:03:45;0.93;;;0.40;;
15669;SDS011;18524;45.190;5.732;2023-01-16T13:08:46;0.63;;;0.40;;
15669;SDS011;18524;45.190;5.732;2023-01-16T13:13:51;1.27;;;0.60;;
15669;SDS011;18524;45.190;5.732;2023-01-16T13:18:47;1.70;;;0.40;;
15669;SDS011;18524;45.190;5.732;2023-01-16T13:23:50;0.80;;;0.43;;
15669;SDS011;18524;45.190;5.732;2023-01-16T13:28:46;1.77;;;0.63;;
15669;SDS011;18524;45.190;5.732;2023-01-16T13:33:47;0.40;;;0.20;;
15669;SDS011;18524;45.190;5.732;2023-01-16T13:38:44;0.53;;;0.30;;
15669;SDS011;18524;45.190;5.732;2023-01-16T13:49:21;0.60;;;0.30;;
15669;SDS011;18524;45.190;5.732;2023-01-16T13:54:17;0.80;;;0.47;;
15669;SDS011;18524;45.190;5.732;2023-01-16T13:59:32;0.40;;;0.20;;
15669;SDS011;18524;45.190;5.732;2023-01-16T14:04:36;0.60;;;0.30;;
15669;SDS011;18524;45.190;5.732;2023-01-16T14:09:26;1.00;;;0.40;;
15669;SDS011;18524;45.190;5.732;2023-01-16T14:19:41;1.33;;;0.30;;
15669;SDS011;18524;45.190;5.732;2023-01-16T14:24:46;0.57;;;0.33;;
15669;SDS011;18524;45.190;5.732;2023-01-16T14:29:52;0.80;;;0.37;;
15669;SDS011;18524;45.190;5.732;2023-01-16T14:50:17;0.70;;;0.40;;
15669;SDS011;18524;45.190;5.732;2023-01-16T14:55:29;1.27;;;0.50;;
15669;SDS011;18524;45.190;5.732;2023-01-16T15:00:39;1.67;;;0.50;;
15669;SDS011;18524;45.190;5.732;2023-01-16T15:05:34;1.30;;;0.50;;
15669;SDS011;18524;45.190;5.732;2023-01-16T15:10:41;1.10;;;0.57;;
15669;SDS011;18524;45.190;5.732;2023-01-16T15:15:32;1.07;;;0.40;;
15669;SDS011;18524;45.190;5.732;2023-01-16T15:20:25;0.67;;;0.50;;
15669;SDS011;18524;45.190;5.732;2023-01-16T15:30:26;0.80;;;0.60;;
15669;SDS011;18524;45.190;5.732;2023-01-16T15:35:16;2.37;;;0.60;;
15669;SDS011;18524;45.190;5.732;2023-01-16T15:40:19;0.90;;;0.53;;
15669;SDS011;18524;45.190;5.732;2023-01-16T15:50:33;1.67;;;0.67;;
15669;SDS011;18524;45.190;5.732;2023-01-16T15:55:34;2.00;;;0.70;;
15669;SDS011;18524;45.190;5.732;2023-01-16T16:00:36;1.60;;;0.90;;
15669;SDS011;18524;45.190;5.732;2023-01-16T16:05:28;2.23;;;1.27;;
15669;SDS011;18524;45.190;5.732;2023-01-16T16:10:19;1.90;;;1.03;;
15669;SDS011;18524;45.190;5.732;2023-01-16T16:15:29;2.23;;;1.10;;
15669;SDS011;18524;45.190;5.732;2023-01-16T16:20:39;1.90;;;0.97;;
15669;SDS011;18524;45.190;5.732;2023-01-16T16:30:24;1.50;;;0.93;;
15669;SDS011;18524;45.190;5.732;2023-01-16T16:35:17;1.67;;;0.87;;
15669;SDS011;18524;45.190;5.732;2023-01-16T16:40:22;1.57;;;0.90;;
15669;SDS011;18524;45.190;5.732;2023-01-16T16:45:19;1.70;;;1.00;;
15669;SDS011;18524;45.190;5.732;2023-01-16T16:55:30;1.70;;;1.00;;
15669;SDS011;18524;45.190;5.732;2023-01-16T17:00:21;2.13;;;1.00;;
15669;SDS011;18524;45.190;5.732;2023-01-16T17:05:12;1.40;;;1.10;;
15669;SDS011;18524;45.190;5.732;2023-01-16T17:10:10;2.43;;;1.10;;
15669;SDS011;18524;45.190;5.732;2023-01-16T17:15:02;1.70;;;1.33;;
15669;SDS011;18524;45.190;5.732;2023-01-16T17:19:52;2.33;;;1.30;;
15669;SDS011;18524;45.190;5.732;2023-01-16T17:24:42;1.73;;;1.10;;
15669;SDS011;18524;45.190;5.732;2023-01-16T17:29:33;2.60;;;1.33;;
15669;SDS011;18524;45.190;5.732;2023-01-16T17:34:24;4.67;;;2.43;;
15669;SDS011;18524;45.190;5.732;2023-01-16T17:39:15;5.30;;;4.03;;
15669;SDS011;18524;45.190;5.732;2023-01-16T17:44:10;2.83;;;1.70;;
15669;SDS011;18524;45.190;5.732;2023-01-16T17:49:23;3.20;;;2.20;;
15669;SDS011;18524;45.190;5.732;2023-01-16T17:54:14;2.70;;;2.00;;
15669;SDS011;18524;45.190;5.732;2023-01-16T17:59:24;2.27;;;1.10;;
15669;SDS011;18524;45.190;5.732;2023-01-16T18:04:17;1.63;;;1.43;;
15669;SDS011;18524;45.190;5.732;2023-01-16T18:09:09;1.63;;;1.50;;
15669;SDS011;18524;45.190;5.732;2023-01-16T18:14:01;2.77;;;2.10;;
15669;SDS011;18524;45.190;5.732;2023-01-16T18:19:10;2.33;;;2.07;;
15669;SDS011;18524;45.190;5.732;2023-01-16T18:24:00;2.33;;;1.70;;
15669;SDS011;18524;45.190;5.732;2023-01-16T18:28:51;3.27;;;2.10;;
15669;SDS011;18524;45.190;5.732;2023-01-16T18:33:41;4.40;;;4.00;;
15669;SDS011;18524;45.190;5.732;2023-01-16T18:38:33;5.90;;;4.53;;
15669;SDS011;18524;45.190;5.732;2023-01-16T18:43:42;5.40;;;4.27;;
15669;SDS011;18524;45.190;5.732;2023-01-16T18:48:51;4.23;;;2.97;;
15669;SDS011;18524;45.190;5.732;2023-01-16T18:54:00;3.00;;;2.70;;
15669;SDS011;18524;45.190;5.732;2023-01-16T18:59:19;3.93;;;3.13;;
15669;SDS011;18524;45.190;5.732;2023-01-16T19:04:30;8.57;;;7.10;;
15669;SDS011;18524;45.190;5.732;2023-01-16T19:09:20;6.40;;;5.67;;
15669;SDS011;18524;45.190;5.732;2023-01-16T19:14:11;9.37;;;6.00;;
15669;SDS011;18524;45.190;5.732;2023-01-16T19:19:02;14.97;;;10.90;;
15669;SDS011;18524;45.190;5.732;2023-01-16T19:23:54;19.60;;;14.00;;
15669;SDS011;18524;45.190;5.732;2023-01-16T19:28:45;27.67;;;19.20;;
15669;SDS011;18524;45.190;5.732;2023-01-16T19:33:35;24.93;;;18.60;;
15669;SDS011;18524;45.190;5.732;2023-01-16T19:38:28;8.73;;;6.57;;
15669;SDS011;18524;45.190;5.732;2023-01-16T19:43:18;6.77;;;5.10;;
15669;SDS011;18524;45.190;5.732;2023-01-16T19:48:27;6.63;;;5.90;;
15669;SDS011;18524;45.190;5.732;2023-01-16T19:53:17;4.73;;;4.20;;
15669;SDS011;18524;45.190;5.732;2023-01-16T19:58:08;7.53;;;5.57;;
15669;SDS011;18524;45.190;5.732;2023-01-16T20:02:58;7.00;;;5.80;;
15669;SDS011;18524;45.190;5.732;2023-01-16T20:07:49;7.33;;;5.40;;
15669;SDS011;18524;45.190;5.732;2023-01-16T20:12:39;5.30;;;4.30;;
15669;SDS011;18524;45.190;5.732;2023-01-16T20:17:36;5.80;;;4.40;;
15669;SDS011;18524;45.190;5.732;2023-01-16T20:22:30;5.23;;;4.10;;
15669;SDS011;18524;45.190;5.732;2023-01-16T20:27:22;3.67;;;3.10;;
15669;SDS011;18524;45.190;5.732;2023-01-16T20:32:13;5.20;;;3.63;;
15669;SDS011;18524;45.190;5.732;2023-01-16T20:37:04;4.77;;;3.73;;
15669;SDS011;18524;45.190;5.732;2023-01-16T20:41:54;5.67;;;4.37;;
15669;SDS011;18524;45.190;5.732;2023-01-16T20:47:04;6.20;;;4.33;;
15669;SDS011;18524;45.190;5.732;2023-01-16T20:51:56;6.13;;;3.30;;
15669;SDS011;18524;45.190;5.732;2023-01-16T20:56:47;5.63;;;3.40;;
15669;SDS011;18524;45.190;5.732;2023-01-16T21:01:38;4.50;;;3.80;;
15669;SDS011;18524;45.190;5.732;2023-01-16T21:06:29;4.87;;;3.70;;
15669;SDS011;18524;45.190;5.732;2023-01-16T21:11:19;7.63;;;5.13;;
15669;SDS011;18524;45.190;5.732;2023-01-16T21:16:28;7.23;;;5.87;;
15669;SDS011;18524;45.190;5.732;2023-01-16T21:21:37;8.90;;;6.70;;
15669;SDS011;18524;45.190;5.732;2023-01-16T21:26:39;11.77;;;8.57;;
15669;SDS011;18524;45.190;5.732;2023-01-16T21:31:33;13.17;;;9.73;;
15669;SDS011;18524;45.190;5.732;2023-01-16T21:36:23;13.23;;;9.57;;
15669;SDS011;18524;45.190;5.732;2023-01-16T21:41:14;13.00;;;9.50;;
15669;SDS011;18524;45.190;5.732;2023-01-16T21:46:07;11.93;;;9.60;;
15669;SDS011;18524;45.190;5.732;2023-01-16T21:51:17;12.73;;;10.20;;
15669;SDS011;18524;45.190;5.732;2023-01-16T21:56:07;13.07;;;10.10;;
15669;SDS011;18524;45.190;5.732;2023-01-16T22:01:01;11.63;;;8.80;;
15669;SDS011;18524;45.190;5.732;2023-01-16T22:05:54;10.77;;;8.53;;
15669;SDS011;18524;45.190;5.732;2023-01-16T22:10:45;11.73;;;8.57;;
15669;SDS011;18524;45.190;5.732;2023-01-16T22:15:54;11.50;;;8.63;;
15669;SDS011;18524;45.190;5.732;2023-01-16T22:21:03;12.00;;;8.80;;
15669;SDS011;18524;45.190;5.732;2023-01-16T22:25:58;14.57;;;8.90;;
15669;SDS011;18524;45.190;5.732;2023-01-16T22:30:50;12.47;;;9.20;;
15669;SDS011;18524;45.190;5.732;2023-01-16T22:35:43;13.17;;;10.27;;
15669;SDS011;18524;45.190;5.732;2023-01-16T22:40:35;13.10;;;10.10;;
15669;SDS011;18524;45.190;5.732;2023-01-16T22:45:25;14.87;;;10.60;;
15669;SDS011;18524;45.190;5.732;2023-01-16T22:50:34;14.37;;;10.23;;
15669;SDS011;18524;45.190;5.732;2023-01-16T22:55:25;15.00;;;10.13;;
15669;SDS011;18524;45.190;5.732;2023-01-16T23:00:15;12.10;;;9.47;;
15669;SDS011;18524;45.190;5.732;2023-01-16T23:05:06;9.97;;;7.97;;
15669;SDS011;18524;45.190;5.732;2023-01-16T23:09:57;12.17;;;7.87;;
15669;SDS011;18524;45.190;5.732;2023-01-16T23:14:47;11.50;;;8.83;;
15669;SDS011;18524;45.190;5.732;2023-01-16T23:19:37;10.37;;;8.13;;
15669;SDS011;18524;45.190;5.732;2023-01-16T23:24:29;11.57;;;8.60;;
15669;SDS011;18524;45.190;5.732;2023-01-16T23:29:21;10.57;;;8.17;;
15669;SDS011;18524;45.190;5.732;2023-01-16T23:34:13;9.97;;;7.87;;
15669;SDS011;18524;45.190;5.732;2023-01-16T23:39:06;9.20;;;7.40;;
15669;SDS011;18524;45.190;5.732;2023-01-16T23:43:59;9.33;;;7.60;;
15669;SDS011;18524;45.190;5.732;2023-01-16T23:49:08;7.93;;;6.60;;
15669;SDS011;18524;45.190;5.732;2023-01-16T23:53:58;5.57;;;4.03;;
15669;SDS011;18524;45.190;5.732;2023-01-16T23:58:48;6.63;;;4.43;;
